sensor_id;sensor_type;location;lat;lon;timestamp;pressure;altitude;pressure_sealevel;temperature;humidity
62791;BME280;48830;53.426;10.300;2022-11-20T00:00:37;101171.78;;;2.25;100.00
62791;BME280;48830;53.426;10.300;2022-11-20T00:03:03;101164.84;;;2.21;100.00
62791;BME280;48830;53.426;10.300;2022-11-20T00:05:28;101162.19;;;2.19;100.00
62791;BME280;48830;53.426;10.300;2022-11-20T00:07:54;101164.66;;;2.18;100.00
62791;BME280;48830;53.426;10.300;2022-11-20T00:10:19;101166.25;;;2.16;100.00
62791;BME280;48830;53.426;10.300;2022-11-20T00:12:44;101167.78;;;2.14;100.00
62791;BME280;48830;53.426;10.300;2022-11-20T00:15:10;101163.34;;;2.09;100.00
62791;BME280;48830;53.426;10.300;2022-11-20T00:17:35;101163.53;;;2.13;100.00
62791;BME280;48830;53.426;10.300;2022-11-20T00:20:01;101167.47;;;2.07;100.00
62791;BME280;48830;53.426;10.300;2022-11-20T00:22:26;101165.88;;;2.09;100.00
62791;BME280;48830;53.426;10.300;2022-11-20T00:24:51;101160.72;;;2.08;100.00
62791;BME280;48830;53.426;10.300;2022-11-20T00:27:17;101167.53;;;2.09;100.00
62791;BME280;48830;53.426;10.300;2022-11-20T00:29:42;101164.84;;;2.06;100.00
62791;BME280;48830;53.426;10.300;2022-11-20T00:32:08;101161.25;;;2.02;100.00
62791;BME280;48830;53.426;10.300;2022-11-20T00:34:33;101164.66;;;2.03;100.00
62791;BME280;48830;53.426;10.300;2022-11-20T00:36:59;101162.06;;;2.01;100.00
62791;BME280;48830;53.426;10.300;2022-11-20T00:39:24;101167.13;;;2.01;100.00
62791;BME280;48830;53.426;10.300;2022-11-20T00:41:51;101163.00;;;2.03;100.00
62791;BME280;48830;53.426;10.300;2022-11-20T00:44:16;101161.19;;;2.01;100.00
62791;BME280;48830;53.426;10.300;2022-11-20T00:46:41;101159.44;;;2.00;100.00
62791;BME280;48830;53.426;10.300;2022-11-20T00:49:07;101161.09;;;1.99;100.00
62791;BME280;48830;53.426;10.300;2022-11-20T00:51:32;101153.41;;;1.98;100.00
62791;BME280;48830;53.426;10.300;2022-11-20T00:53:58;101157.66;;;1.99;100.00
62791;BME280;48830;53.426;10.300;2022-11-20T00:56:25;101156.81;;;1.98;100.00
62791;BME280;48830;53.426;10.300;2022-11-20T00:58:50;101159.25;;;1.97;100.00
62791;BME280;48830;53.426;10.300;2022-11-20T01:01:19;101154.00;;;1.94;100.00
62791;BME280;48830;53.426;10.300;2022-11-20T01:03:47;101153.25;;;1.95;100.00
62791;BME280;48830;53.426;10.300;2022-11-20T01:06:19;101144.84;;;1.96;100.00
62791;BME280;48830;53.426;10.300;2022-11-20T01:08:45;101147.19;;;1.93;100.00
62791;BME280;48830;53.426;10.300;2022-11-20T01:11:16;101144.66;;;1.93;100.00
62791;BME280;48830;53.426;10.300;2022-11-20T01:13:44;101138.63;;;1.91;100.00
62791;BME280;48830;53.426;10.300;2022-11-20T01:18:37;101136.56;;;1.83;99.54
62791;BME280;48830;53.426;10.300;2022-11-20T01:21:10;101137.31;;;1.82;100.00
62791;BME280;48830;53.426;10.300;2022-11-20T01:23:38;101138.03;;;1.80;99.54
62791;BME280;48830;53.426;10.300;2022-11-20T01:26:05;101146.69;;;1.83;100.00
62791;BME280;48830;53.426;10.300;2022-11-20T01:28:31;101137.25;;;1.81;100.00
62791;BME280;48830;53.426;10.300;2022-11-20T01:30:58;101134.78;;;1.82;100.00
62791;BME280;48830;53.426;10.300;2022-11-20T01:33:24;101138.13;;;1.81;99.96
62791;BME280;48830;53.426;10.300;2022-11-20T01:35:49;101126.44;;;1.83;99.82
62791;BME280;48830;53.426;10.300;2022-11-20T01:38:15;101126.56;;;1.87;100.00
62791;BME280;48830;53.426;10.300;2022-11-20T01:40:41;101127.44;;;1.87;100.00
62791;BME280;48830;53.426;10.300;2022-11-20T01:43:25;101122.56;;;1.90;100.00
62791;BME280;48830;53.426;10.300;2022-11-20T01:46:18;101120.97;;;1.92;100.00
62791;BME280;48830;53.426;10.300;2022-11-20T01:53:48;101111.56;;;1.90;100.00
62791;BME280;48830;53.426;10.300;2022-11-20T01:56:15;101113.97;;;1.88;100.00
62791;BME280;48830;53.426;10.300;2022-11-20T01:58:56;101113.28;;;1.91;100.00
62791;BME280;48830;53.426;10.300;2022-11-20T02:01:23;101117.50;;;1.90;100.00
62791;BME280;48830;53.426;10.300;2022-11-20T02:03:50;101104.22;;;1.94;100.00
62791;BME280;48830;53.426;10.300;2022-11-20T02:06:31;101099.75;;;1.90;100.00
62791;BME280;48830;53.426;10.300;2022-11-20T02:08:58;101095.47;;;1.89;100.00
62791;BME280;48830;53.426;10.300;2022-11-20T02:11:23;101092.06;;;1.89;99.71
62791;BME280;48830;53.426;10.300;2022-11-20T02:13:49;101095.56;;;1.91;100.00
62791;BME280;48830;53.426;10.300;2022-11-20T02:16:27;101088.75;;;1.90;99.66
62791;BME280;48830;53.426;10.300;2022-11-20T02:18:55;101090.47;;;1.91;100.00
62791;BME280;48830;53.426;10.300;2022-11-20T02:21:42;101096.50;;;1.93;100.00
62791;BME280;48830;53.426;10.300;2022-11-20T02:24:21;101092.41;;;1.95;100.00
62791;BME280;48830;53.426;10.300;2022-11-20T02:29:53;101089.88;;;1.95;100.00
62791;BME280;48830;53.426;10.300;2022-11-20T02:34:54;101091.75;;;1.99;99.72
62791;BME280;48830;53.426;10.300;2022-11-20T02:37:21;101087.59;;;1.99;100.00
62791;BME280;48830;53.426;10.300;2022-11-20T02:39:49;101085.91;;;2.00;99.64
62791;BME280;48830;53.426;10.300;2022-11-20T02:42:15;101080.84;;;2.00;99.86
62791;BME280;48830;53.426;10.300;2022-11-20T02:44:40;101079.00;;;1.97;99.41
62791;BME280;48830;53.426;10.300;2022-11-20T02:47:06;101072.38;;;1.99;100.00
62791;BME280;48830;53.426;10.300;2022-11-20T02:49:32;101072.38;;;1.99;99.67
62791;BME280;48830;53.426;10.300;2022-11-20T02:51:57;101076.53;;;1.99;100.00
62791;BME280;48830;53.426;10.300;2022-11-20T02:54:23;101068.00;;;1.97;99.97
62791;BME280;48830;53.426;10.300;2022-11-20T02:56:48;101071.66;;;2.02;100.00
62791;BME280;48830;53.426;10.300;2022-11-20T02:59:14;101068.19;;;2.00;100.00
62791;BME280;48830;53.426;10.300;2022-11-20T03:01:39;101069.13;;;2.02;100.00
62791;BME280;48830;53.426;10.300;2022-11-20T03:04:05;101071.41;;;1.97;100.00
62791;BME280;48830;53.426;10.300;2022-11-20T03:06:30;101064.84;;;2.01;99.83
62791;BME280;48830;53.426;10.300;2022-11-20T03:08:56;101065.72;;;2.01;100.00
62791;BME280;48830;53.426;10.300;2022-11-20T03:11:22;101068.88;;;1.97;100.00
62791;BME280;48830;53.426;10.300;2022-11-20T03:13:47;101063.47;;;1.91;99.92
62791;BME280;48830;53.426;10.300;2022-11-20T03:16:15;101066.88;;;1.92;100.00
62791;BME280;48830;53.426;10.300;2022-11-20T03:18:41;101067.66;;;1.91;100.00
62791;BME280;48830;53.426;10.300;2022-11-20T03:21:08;101069.25;;;1.89;100.00
62791;BME280;48830;53.426;10.300;2022-11-20T03:23:34;101061.41;;;1.84;100.00
62791;BME280;48830;53.426;10.300;2022-11-20T03:26:27;101067.47;;;1.88;100.00
62791;BME280;48830;53.426;10.300;2022-11-20T03:29:01;101060.84;;;1.90;100.00
62791;BME280;48830;53.426;10.300;2022-11-20T03:31:33;101059.28;;;1.92;100.00
62791;BME280;48830;53.426;10.300;2022-11-20T03:33:59;101062.59;;;1.91;100.00
62791;BME280;48830;53.426;10.300;2022-11-20T03:36:26;101055.06;;;1.92;100.00
62791;BME280;48830;53.426;10.300;2022-11-20T03:38:54;101067.66;;;1.91;100.00
62791;BME280;48830;53.426;10.300;2022-11-20T03:41:28;101057.53;;;1.91;100.00
62791;BME280;48830;53.426;10.300;2022-11-20T03:44:01;101050.88;;;1.93;100.00
62791;BME280;48830;53.426;10.300;2022-11-20T03:46:28;101047.38;;;1.91;100.00
62791;BME280;48830;53.426;10.300;2022-11-20T03:48:54;101049.13;;;1.92;100.00
62791;BME280;48830;53.426;10.300;2022-11-20T03:51:24;101044.25;;;1.95;100.00
62791;BME280;48830;53.426;10.300;2022-11-20T03:53:52;101039.84;;;1.92;100.00
62791;BME280;48830;53.426;10.300;2022-11-20T03:56:22;101044.25;;;1.95;100.00
62791;BME280;48830;53.426;10.300;2022-11-20T03:58:48;101049.47;;;1.98;100.00
62791;BME280;48830;53.426;10.300;2022-11-20T04:01:19;101044.38;;;1.98;100.00
62791;BME280;48830;53.426;10.300;2022-11-20T04:03:45;101037.56;;;1.97;100.00
62791;BME280;48830;53.426;10.300;2022-11-20T04:06:17;101040.03;;;1.95;100.00
62791;BME280;48830;53.426;10.300;2022-11-20T04:08:43;101029.72;;;1.92;100.00
62791;BME280;48830;53.426;10.300;2022-11-20T04:13:37;101029.78;;;1.94;100.00
62791;BME280;48830;53.426;10.300;2022-11-20T04:16:04;101032.31;;;1.94;100.00
62791;BME280;48830;53.426;10.300;2022-11-20T04:18:29;101033.91;;;1.92;100.00
62791;BME280;48830;53.426;10.300;2022-11-20T04:20:56;101029.72;;;1.92;100.00
62791;BME280;48830;53.426;10.300;2022-11-20T04:23:22;101023.63;;;1.89;100.00
62791;BME280;48830;53.426;10.300;2022-11-20T04:25:48;101027.97;;;1.91;100.00
62791;BME280;48830;53.426;10.300;2022-11-20T04:28:13;101024.56;;;1.91;100.00
62791;BME280;48830;53.426;10.300;2022-11-20T04:30:38;101021.16;;;1.90;100.00
62791;BME280;48830;53.426;10.300;2022-11-20T04:33:04;101027.81;;;1.88;100.00
62791;BME280;48830;53.426;10.300;2022-11-20T04:35:29;101026.16;;;1.89;100.00
62791;BME280;48830;53.426;10.300;2022-11-20T04:37:55;101024.56;;;1.91;100.00
62791;BME280;48830;53.426;10.300;2022-11-20T04:40:20;101028.69;;;1.89;100.00
62791;BME280;48830;53.426;10.300;2022-11-20T04:42:46;101020.13;;;1.87;100.00
62791;BME280;48830;53.426;10.300;2022-11-20T04:45:11;101030.25;;;1.87;100.00
62791;BME280;48830;53.426;10.300;2022-11-20T04:47:36;101023.63;;;1.89;100.00
62791;BME280;48830;53.426;10.300;2022-11-20T04:50:02;101017.59;;;1.87;100.00
62791;BME280;48830;53.426;10.300;2022-11-20T04:52:27;101020.13;;;1.87;100.00
62791;BME280;48830;53.426;10.300;2022-11-20T04:54:53;101016.78;;;1.88;100.00
62791;BME280;48830;53.426;10.300;2022-11-20T04:57:19;101022.66;;;1.87;100.00
62791;BME280;48830;53.426;10.300;2022-11-20T04:59:44;101021.88;;;1.88;100.00
62791;BME280;48830;53.426;10.300;2022-11-20T05:02:10;101022.03;;;1.91;100.00
62791;BME280;48830;53.426;10.300;2022-11-20T05:04:36;101016.97;;;1.91;100.00
62791;BME280;48830;53.426;10.300;2022-11-20T05:07:01;101021.25;;;1.92;100.00
62791;BME280;48830;53.426;10.300;2022-11-20T05:09:26;101015.38;;;1.93;100.00
62791;BME280;48830;53.426;10.300;2022-11-20T05:11:52;101017.03;;;1.92;100.00
62791;BME280;48830;53.426;10.300;2022-11-20T05:14:17;101013.63;;;1.92;100.00
62791;BME280;48830;53.426;10.300;2022-11-20T05:16:43;101008.56;;;1.92;100.00
62791;BME280;48830;53.426;10.300;2022-11-20T05:19:08;101011.91;;;1.91;100.00
62791;BME280;48830;53.426;10.300;2022-11-20T05:21:34;101009.38;;;1.91;100.00
62791;BME280;48830;53.426;10.300;2022-11-20T05:23:59;100996.69;;;1.91;100.00
62791;BME280;48830;53.426;10.300;2022-11-20T05:26:25;100999.31;;;1.92;100.00
62791;BME280;48830;53.426;10.300;2022-11-20T05:28:50;101007.69;;;1.91;100.00
62791;BME280;48830;53.426;10.300;2022-11-20T05:31:18;101010.16;;;1.90;100.00
62791;BME280;48830;53.426;10.300;2022-11-20T05:33:44;100992.50;;;1.91;100.00
62791;BME280;48830;53.426;10.300;2022-11-20T05:36:11;101004.38;;;1.92;100.00
62791;BME280;48830;53.426;10.300;2022-11-20T05:38:38;101000.16;;;1.93;100.00
62791;BME280;48830;53.426;10.300;2022-11-20T05:41:05;100999.16;;;1.89;100.00
62791;BME280;48830;53.426;10.300;2022-11-20T05:43:35;100991.44;;;1.88;100.00
62791;BME280;48830;53.426;10.300;2022-11-20T05:46:01;100985.63;;;1.89;100.00
62791;BME280;48830;53.426;10.300;2022-11-20T05:48:27;100991.44;;;1.88;100.00
62791;BME280;48830;53.426;10.300;2022-11-20T05:50:53;100982.84;;;1.84;100.00
62791;BME280;48830;53.426;10.300;2022-11-20T05:53:18;100974.34;;;1.83;100.00
62791;BME280;48830;53.426;10.300;2022-11-20T05:55:43;100974.34;;;1.83;100.00
62791;BME280;48830;53.426;10.300;2022-11-20T05:58:09;100972.69;;;1.84;100.00
62791;BME280;48830;53.426;10.300;2022-11-20T06:00:34;100974.34;;;1.83;100.00
62791;BME280;48830;53.426;10.300;2022-11-20T06:03:00;100974.81;;;1.76;100.00
62791;BME280;48830;53.426;10.300;2022-11-20T06:05:26;100980.66;;;1.75;100.00
62791;BME280;48830;53.426;10.300;2022-11-20T06:07:51;100982.41;;;1.76;100.00
62791;BME280;48830;53.426;10.300;2022-11-20T06:10:17;100977.97;;;1.72;100.00
62791;BME280;48830;53.426;10.300;2022-11-20T06:12:42;100978.75;;;1.71;100.00
62791;BME280;48830;53.426;10.300;2022-11-20T06:15:08;100979.63;;;1.72;100.00
62791;BME280;48830;53.426;10.300;2022-11-20T06:17:34;100978.59;;;1.68;100.00
62791;BME280;48830;53.426;10.300;2022-11-20T06:19:59;100980.28;;;1.68;100.00
62791;BME280;48830;53.426;10.300;2022-11-20T06:22:24;100973.53;;;1.68;100.00
62791;BME280;48830;53.426;10.300;2022-11-20T06:24:50;100984.53;;;1.69;100.00
62791;BME280;48830;53.426;10.300;2022-11-20T06:27:16;100975.44;;;1.72;100.00
62791;BME280;48830;53.426;10.300;2022-11-20T06:29:41;100974.75;;;1.60;100.00
62791;BME280;48830;53.426;10.300;2022-11-20T06:32:07;100971.22;;;1.56;100.00
62791;BME280;48830;53.426;10.300;2022-11-20T06:34:32;100969.38;;;1.54;100.00
62791;BME280;48830;53.426;10.300;2022-11-20T06:36:58;100969.38;;;1.54;100.00
62791;BME280;48830;53.426;10.300;2022-11-20T06:39:23;100960.97;;;1.55;100.00
62791;BME280;48830;53.426;10.300;2022-11-20T06:41:48;100967.31;;;1.47;100.00
62791;BME280;48830;53.426;10.300;2022-11-20T06:44:14;100962.84;;;1.43;100.00
62791;BME280;48830;53.426;10.300;2022-11-20T06:46:39;100959.72;;;1.47;100.00
62791;BME280;48830;53.426;10.300;2022-11-20T06:49:05;100961.25;;;1.45;100.00
62791;BME280;48830;53.426;10.300;2022-11-20T06:51:31;100958.59;;;1.42;100.00
62791;BME280;48830;53.426;10.300;2022-11-20T06:53:56;100954.94;;;1.37;100.00
62791;BME280;48830;53.426;10.300;2022-11-20T06:56:21;100958.59;;;1.42;100.00
62791;BME280;48830;53.426;10.300;2022-11-20T06:58:47;100962.59;;;1.38;100.00
62791;BME280;48830;53.426;10.300;2022-11-20T07:01:14;100953.50;;;1.42;100.00
62791;BME280;48830;53.426;10.300;2022-11-20T07:03:40;100957.00;;;1.44;100.00
62791;BME280;48830;53.426;10.300;2022-11-20T07:06:06;100953.50;;;1.42;100.00
62791;BME280;48830;53.426;10.300;2022-11-20T07:08:32;100959.72;;;1.47;100.00
62791;BME280;48830;53.426;10.300;2022-11-20T07:10:59;100959.78;;;1.48;100.00
62791;BME280;48830;53.426;10.300;2022-11-20T07:13:26;100963.97;;;1.48;100.00
62791;BME280;48830;53.426;10.300;2022-11-20T07:15:51;100965.91;;;1.52;100.00
62791;BME280;48830;53.426;10.300;2022-11-20T07:18:17;100960.09;;;1.54;100.00
62791;BME280;48830;53.426;10.300;2022-11-20T07:20:42;100966.91;;;1.55;100.00
62791;BME280;48830;53.426;10.300;2022-11-20T07:23:08;100965.25;;;1.56;100.00
62791;BME280;48830;53.426;10.300;2022-11-20T07:25:33;100966.22;;;1.58;100.00
62791;BME280;48830;53.426;10.300;2022-11-20T07:27:59;100968.13;;;1.62;100.00
62791;BME280;48830;53.426;10.300;2022-11-20T07:30:29;100961.47;;;1.64;100.00
62791;BME280;48830;53.426;10.300;2022-11-20T07:32:56;100971.63;;;1.64;100.00
62791;BME280;48830;53.426;10.300;2022-11-20T07:35:23;100973.34;;;1.65;100.00
62791;BME280;48830;53.426;10.300;2022-11-20T07:37:48;100969.16;;;1.66;100.00
62791;BME280;48830;53.426;10.300;2022-11-20T07:40:15;100963.22;;;1.65;100.00
62791;BME280;48830;53.426;10.300;2022-11-20T07:42:48;100965.94;;;1.68;100.00
62791;BME280;48830;53.426;10.300;2022-11-20T07:45:14;100963.28;;;1.67;100.00
62791;BME280;48830;53.426;10.300;2022-11-20T07:47:39;100962.78;;;1.72;100.00
62791;BME280;48830;53.426;10.300;2022-11-20T07:50:05;100961.97;;;1.73;100.00
62791;BME280;48830;53.426;10.300;2022-11-20T07:52:31;100966.50;;;1.79;100.00
62791;BME280;48830;53.426;10.300;2022-11-20T07:54:56;100967.53;;;1.82;100.00
62791;BME280;48830;53.426;10.300;2022-11-20T07:57:21;100964.03;;;1.80;100.00
62791;BME280;48830;53.426;10.300;2022-11-20T07:59:47;100967.53;;;1.82;100.00
62791;BME280;48830;53.426;10.300;2022-11-20T08:02:12;100963.50;;;1.86;100.00
62791;BME280;48830;53.426;10.300;2022-11-20T08:04:38;100957.88;;;1.92;100.00
62791;BME280;48830;53.426;10.300;2022-11-20T08:07:03;100961.34;;;1.94;100.00
62791;BME280;48830;53.426;10.300;2022-11-20T08:09:29;100965.72;;;1.96;100.00
62791;BME280;48830;53.426;10.300;2022-11-20T08:11:54;100955.59;;;1.96;100.00
62791;BME280;48830;53.426;10.300;2022-11-20T08:14:38;100949.97;;;2.02;100.00
62791;BME280;48830;53.426;10.300;2022-11-20T08:17:04;100948.47;;;2.05;100.00
62791;BME280;48830;53.426;10.300;2022-11-20T08:19:29;100953.78;;;2.10;100.00
62791;BME280;48830;53.426;10.300;2022-11-20T08:21:55;100950.59;;;2.14;100.00
62791;BME280;48830;53.426;10.300;2022-11-20T08:24:20;100948.78;;;2.12;100.00
62791;BME280;48830;53.426;10.300;2022-11-20T08:26:46;100955.03;;;2.18;100.00
62791;BME280;48830;53.426;10.300;2022-11-20T08:29:11;100950.91;;;2.20;100.00
62791;BME280;48830;53.426;10.300;2022-11-20T08:31:37;100956.94;;;2.22;100.00
62791;BME280;48830;53.426;10.300;2022-11-20T08:34:03;100953.84;;;2.28;100.00
62791;BME280;48830;53.426;10.300;2022-11-20T08:36:28;100959.00;;;2.29;100.00
62791;BME280;48830;53.426;10.300;2022-11-20T08:38:57;100954.88;;;2.31;100.00
62791;BME280;48830;53.426;10.300;2022-11-20T08:41:23;100960.09;;;2.34;100.00
62791;BME280;48830;53.426;10.300;2022-11-20T08:43:59;100955.19;;;2.38;100.00
62791;BME280;48830;53.426;10.300;2022-11-20T08:46:26;100963.75;;;2.40;100.00
62791;BME280;48830;53.426;10.300;2022-11-20T08:48:51;100960.72;;;2.47;100.00
62791;BME280;48830;53.426;10.300;2022-11-20T08:51:18;100965.16;;;2.51;100.00
62791;BME280;48830;53.426;10.300;2022-11-20T08:53:44;100961.00;;;2.53;100.00
62791;BME280;48830;53.426;10.300;2022-11-20T08:56:09;100956.41;;;2.62;100.00
62791;BME280;48830;53.426;10.300;2022-11-20T08:58:35;100950.41;;;2.60;100.00
62791;BME280;48830;53.426;10.300;2022-11-20T09:01:01;100963.03;;;2.58;100.00
62791;BME280;48830;53.426;10.300;2022-11-20T09:03:27;100952.50;;;2.69;100.00
62791;BME280;48830;53.426;10.300;2022-11-20T09:06:04;100956.13;;;2.74;99.41
62791;BME280;48830;53.426;10.300;2022-11-20T09:08:30;100957.25;;;2.79;98.82
62791;BME280;48830;53.426;10.300;2022-11-20T09:10:56;100960.41;;;2.91;98.28
62791;BME280;48830;53.426;10.300;2022-11-20T09:13:23;100957.00;;;3.08;97.99
62791;BME280;48830;53.426;10.300;2022-11-20T09:15:56;100963.44;;;3.37;97.02
62791;BME280;48830;53.426;10.300;2022-11-20T09:18:23;100957.47;;;3.55;95.32
62791;BME280;48830;53.426;10.300;2022-11-20T09:20:49;100960.50;;;3.65;93.99
62791;BME280;48830;53.426;10.300;2022-11-20T09:23:15;100959.03;;;3.88;93.83
62791;BME280;48830;53.426;10.300;2022-11-20T09:25:41;100956.56;;;3.90;91.85
62791;BME280;48830;53.426;10.300;2022-11-20T09:28:07;100955.56;;;3.68;92.94
62791;BME280;48830;53.426;10.300;2022-11-20T09:30:33;100959.16;;;3.54;93.14
62791;BME280;48830;53.426;10.300;2022-11-20T09:32:58;100957.50;;;3.37;93.93
62791;BME280;48830;53.426;10.300;2022-11-20T09:35:24;100956.19;;;3.27;94.34
62791;BME280;48830;53.426;10.300;2022-11-20T09:37:49;100958.91;;;3.12;94.70
62791;BME280;48830;53.426;10.300;2022-11-20T09:40:21;100960.25;;;3.06;95.04
62791;BME280;48830;53.426;10.300;2022-11-20T09:42:56;100955.75;;;3.00;94.89
62791;BME280;48830;53.426;10.300;2022-11-20T09:48:45;100958.97;;;3.14;95.30
62791;BME280;48830;53.426;10.300;2022-11-20T09:54:30;100954.91;;;3.35;94.56
62791;BME280;48830;53.426;10.300;2022-11-20T09:57:21;100951.72;;;3.39;95.17
62791;BME280;48830;53.426;10.300;2022-11-20T09:59:52;100963.88;;;3.47;95.55
62791;BME280;48830;53.426;10.300;2022-11-20T10:05:17;100959.53;;;3.62;94.53
62791;BME280;48830;53.426;10.300;2022-11-20T10:10:43;100950.28;;;3.64;93.32
62791;BME280;48830;53.426;10.300;2022-11-20T10:16:56;100944.56;;;3.87;93.37
62791;BME280;48830;53.426;10.300;2022-11-20T10:21:56;100951.13;;;4.02;94.01
62791;BME280;48830;53.426;10.300;2022-11-20T10:30:12;100944.22;;;3.80;94.57
62791;BME280;48830;53.426;10.300;2022-11-20T10:32:43;100944.13;;;3.59;94.65
62791;BME280;48830;53.426;10.300;2022-11-20T10:37:42;100937.75;;;3.31;97.76
62791;BME280;48830;53.426;10.300;2022-11-20T10:42:59;100939.06;;;3.78;97.11
62791;BME280;48830;53.426;10.300;2022-11-20T10:48:04;100932.78;;;4.28;92.83
62791;BME280;48830;53.426;10.300;2022-11-20T10:50:36;100932.22;;;4.55;90.32
62791;BME280;48830;53.426;10.300;2022-11-20T10:55:45;100933.09;;;5.85;86.55
62791;BME280;48830;53.426;10.300;2022-11-20T11:00:43;100935.66;;;4.76;89.23
62791;BME280;48830;53.426;10.300;2022-11-20T11:03:22;100930.56;;;4.97;89.05
62791;BME280;48830;53.426;10.300;2022-11-20T11:05:54;100932.34;;;4.99;87.53
62791;BME280;48830;53.426;10.300;2022-11-20T11:08:22;100932.59;;;5.94;83.32
62791;BME280;48830;53.426;10.300;2022-11-20T11:10:57;100927.38;;;7.17;74.94
62791;BME280;48830;53.426;10.300;2022-11-20T11:13:26;100921.78;;;6.50;75.44
62791;BME280;48830;53.426;10.300;2022-11-20T11:15:52;100925.59;;;5.90;77.19
62791;BME280;48830;53.426;10.300;2022-11-20T11:18:26;100920.53;;;5.22;80.92
62791;BME280;48830;53.426;10.300;2022-11-20T11:20:53;100911.81;;;5.38;81.31
62791;BME280;48830;53.426;10.300;2022-11-20T11:25:58;100908.91;;;6.46;74.45
62791;BME280;48830;53.426;10.300;2022-11-20T11:28:25;100921.19;;;5.39;78.32
62791;BME280;48830;53.426;10.300;2022-11-20T11:30:52;100919.41;;;4.95;82.33
62791;BME280;48830;53.426;10.300;2022-11-20T11:33:29;100918.22;;;4.85;82.78
62791;BME280;48830;53.426;10.300;2022-11-20T11:35:56;100918.16;;;4.63;82.55
62791;BME280;48830;53.426;10.300;2022-11-20T11:40:56;100908.25;;;4.30;83.73
62791;BME280;48830;53.426;10.300;2022-11-20T11:43:28;100915.00;;;4.49;83.80
62791;BME280;48830;53.426;10.300;2022-11-20T11:49:00;100912.53;;;4.92;81.64
62791;BME280;48830;53.426;10.300;2022-11-20T11:51:31;100908.16;;;5.11;80.72
62791;BME280;48830;53.426;10.300;2022-11-20T11:53:58;100906.97;;;5.46;80.19
62791;BME280;48830;53.426;10.300;2022-11-20T11:56:26;100907.09;;;5.71;79.95
62791;BME280;48830;53.426;10.300;2022-11-20T11:58:56;100901.00;;;5.45;79.50
62791;BME280;48830;53.426;10.300;2022-11-20T12:01:38;100902.28;;;5.12;79.77
62791;BME280;48830;53.426;10.300;2022-11-20T12:04:19;100898.25;;;4.75;81.64
62791;BME280;48830;53.426;10.300;2022-11-20T12:06:51;100907.44;;;4.92;81.79
62791;BME280;48830;53.426;10.300;2022-11-20T12:09:20;100901.94;;;5.25;81.65
62791;BME280;48830;53.426;10.300;2022-11-20T12:11:55;100900.16;;;5.22;80.14
62791;BME280;48830;53.426;10.300;2022-11-20T12:14:39;100895.34;;;6.48;76.06
62791;BME280;48830;53.426;10.300;2022-11-20T12:17:09;100893.19;;;7.70;73.60
62791;BME280;48830;53.426;10.300;2022-11-20T12:19:36;100888.72;;;9.71;64.67
62791;BME280;48830;53.426;10.300;2022-11-20T12:28:12;100879.53;;;10.76;60.16
62791;BME280;48830;53.426;10.300;2022-11-20T12:31:14;100889.41;;;10.50;58.60
62791;BME280;48830;53.426;10.300;2022-11-20T12:36:52;100872.75;;;8.02;65.03
62791;BME280;48830;53.426;10.300;2022-11-20T12:52:47;100876.06;;;5.83;72.89
62791;BME280;48830;53.426;10.300;2022-11-20T12:55:30;100875.09;;;5.81;72.78
62791;BME280;48830;53.426;10.300;2022-11-20T13:00:31;100868.88;;;8.18;65.59
62791;BME280;48830;53.426;10.300;2022-11-20T13:05:46;100877.00;;;9.04;64.20
62791;BME280;48830;53.426;10.300;2022-11-20T13:08:28;100875.22;;;10.23;60.10
62791;BME280;48830;53.426;10.300;2022-11-20T13:18:29;100887.81;;;6.51;69.33
62791;BME280;48830;53.426;10.300;2022-11-20T13:21:00;100876.50;;;5.95;69.85
62791;BME280;48830;53.426;10.300;2022-11-20T13:23:27;100883.50;;;5.77;71.93
62791;BME280;48830;53.426;10.300;2022-11-20T13:26:04;100878.63;;;5.61;72.90
62791;BME280;48830;53.426;10.300;2022-11-20T13:28:30;100866.69;;;5.37;72.87
62791;BME280;48830;53.426;10.300;2022-11-20T13:30:57;100868.94;;;5.28;73.01
62791;BME280;48830;53.426;10.300;2022-11-20T13:38:24;100871.28;;;5.01;73.33
62791;BME280;48830;53.426;10.300;2022-11-20T13:40:56;100858.47;;;4.99;74.22
62791;BME280;48830;53.426;10.300;2022-11-20T13:43:26;100863.78;;;5.06;74.10
62791;BME280;48830;53.426;10.300;2022-11-20T13:46:04;100867.28;;;5.08;74.11
62791;BME280;48830;53.426;10.300;2022-11-20T13:48:32;100858.56;;;5.01;75.14
62791;BME280;48830;53.426;10.300;2022-11-20T13:53:53;100864.19;;;4.94;75.38
62791;BME280;48830;53.426;10.300;2022-11-20T14:01:48;100848.16;;;4.74;76.97
62791;BME280;48830;53.426;10.300;2022-11-20T14:04:17;100843.59;;;4.67;76.97
62791;BME280;48830;53.426;10.300;2022-11-20T14:06:47;100835.63;;;4.58;76.63
62791;BME280;48830;53.426;10.300;2022-11-20T14:09:33;100844.56;;;4.48;75.54
62791;BME280;48830;53.426;10.300;2022-11-20T14:12:02;100842.38;;;4.36;76.47
62791;BME280;48830;53.426;10.300;2022-11-20T14:14:30;100840.50;;;4.32;76.61
62791;BME280;48830;53.426;10.300;2022-11-20T14:17:47;100836.91;;;4.27;77.05
62791;BME280;48830;53.426;10.300;2022-11-20T14:19:54;100832.69;;;4.28;77.72
62791;BME280;48830;53.426;10.300;2022-11-20T14:22:27;100834.13;;;4.21;78.07
62791;BME280;48830;53.426;10.300;2022-11-20T14:27:39;100830.38;;;4.13;79.00
62791;BME280;48830;53.426;10.300;2022-11-20T14:30:12;100831.94;;;4.09;79.37
62791;BME280;48830;53.426;10.300;2022-11-20T14:32:39;100828.25;;;4.03;78.80
62791;BME280;48830;53.426;10.300;2022-11-20T14:35:24;100830.66;;;4.00;79.36
62791;BME280;48830;53.426;10.300;2022-11-20T14:37:50;100822.91;;;3.97;79.35
62791;BME280;48830;53.426;10.300;2022-11-20T14:42:49;100826.09;;;3.92;79.69